createdAt,value
2023-04-20T00:01:13.806Z,4.28
2023-04-20T00:03:41.241Z,8.73
2023-04-20T00:06:08.076Z,8.18
2023-04-20T00:08:34.844Z,5.53
2023-04-20T00:11:01.530Z,5.68
2023-04-20T00:13:28.211Z,3.55
2023-04-20T00:15:54.850Z,4.00
2023-04-20T00:18:21.521Z,5.38
2023-04-20T00:20:48.265Z,4.00
2023-04-20T00:23:15.151Z,8.85
2023-04-20T00:25:41.930Z,9.68
2023-04-20T00:28:08.598Z,6.10
2023-04-20T00:30:35.349Z,4.45
2023-04-20T00:33:03.973Z,5.78
2023-04-20T00:35:30.813Z,7.07
2023-04-20T00:37:57.517Z,6.95
2023-04-20T00:40:25.658Z,6.88
2023-04-20T00:42:52.397Z,6.60
2023-04-20T00:45:19.304Z,9.88
2023-04-20T00:47:46.211Z,6.43
2023-04-20T00:50:12.995Z,6.35
2023-04-20T00:52:41.266Z,5.18
2023-04-20T00:55:08.593Z,9.65
2023-04-20T00:57:36.145Z,6.13
2023-04-20T01:00:03.692Z,6.38
2023-04-20T01:02:30.733Z,6.18
2023-04-20T01:04:57.655Z,6.28
2023-04-20T01:07:24.351Z,6.13
2023-04-20T01:09:50.993Z,4.88
2023-04-20T01:12:17.700Z,5.95
2023-04-20T01:14:44.375Z,7.45
2023-04-20T01:17:11.580Z,8.82
2023-04-20T01:19:38.369Z,5.82
2023-04-20T01:22:06.063Z,5.65
2023-04-20T01:24:32.714Z,6.25
2023-04-20T01:26:59.967Z,4.35
2023-04-20T01:29:28.042Z,5.57
2023-04-20T01:31:54.946Z,8.90
2023-04-20T01:34:21.790Z,6.88
2023-04-20T01:36:48.465Z,6.28
2023-04-20T01:39:15.465Z,7.07
2023-04-20T01:41:42.276Z,4.78
2023-04-20T01:44:08.935Z,8.98
2023-04-20T01:46:39.935Z,6.57
2023-04-20T01:49:08.041Z,6.35
2023-04-20T01:51:35.648Z,7.80
2023-04-20T01:54:03.682Z,3.92
2023-04-20T01:56:30.361Z,4.40
2023-04-20T01:58:58.509Z,5.05
2023-04-20T02:01:25.266Z,4.55
2023-04-20T02:03:53.391Z,5.38
2023-04-20T02:06:21.260Z,6.07
2023-04-20T02:08:47.973Z,7.43
2023-04-20T02:11:14.956Z,4.38
2023-04-20T02:13:42.098Z,4.55
2023-04-20T02:16:09.506Z,7.90
2023-04-20T02:18:37.284Z,7.85
2023-04-20T02:21:05.866Z,5.68
2023-04-20T02:23:32.623Z,5.47
2023-04-20T02:25:59.287Z,6.97
2023-04-20T02:28:27.013Z,8.00
2023-04-20T02:30:53.805Z,4.78
2023-04-20T02:33:21.659Z,4.53
2023-04-20T02:35:48.728Z,7.03
2023-04-20T02:38:15.834Z,5.72
2023-04-20T02:40:42.469Z,5.40
2023-04-20T02:43:09.861Z,5.80
2023-04-20T02:45:37.837Z,6.82
2023-04-20T02:48:05.809Z,4.55
2023-04-20T02:50:32.566Z,5.95
2023-04-20T02:53:19.775Z,7.63
2023-04-20T02:55:51.869Z,6.43
2023-04-20T02:58:27.335Z,4.93
2023-04-20T03:01:08.656Z,4.35
2023-04-20T03:03:36.772Z,6.93
2023-04-20T03:06:05.694Z,6.50
2023-04-20T03:08:33.078Z,9.38
2023-04-20T03:11:10.604Z,5.03
2023-04-20T03:13:37.348Z,7.40
2023-04-20T03:16:06.100Z,6.43
2023-04-20T03:18:41.656Z,4.43
2023-04-20T03:21:08.682Z,6.75
2023-04-20T03:23:35.399Z,5.53
2023-04-20T03:26:03.034Z,5.95
2023-04-20T03:28:53.035Z,7.88
2023-04-20T03:31:24.358Z,6.88
2023-04-20T03:33:53.624Z,9.40
2023-04-20T03:36:20.299Z,5.10
2023-04-20T03:38:47.159Z,8.68
2023-04-20T03:41:14.847Z,4.68
2023-04-20T03:43:41.735Z,7.10
2023-04-20T03:46:09.481Z,6.07
2023-04-20T03:48:36.225Z,4.55
2023-04-20T03:51:03.128Z,5.35
2023-04-20T03:53:31.163Z,5.18
2023-04-20T03:55:58.170Z,9.02
2023-04-20T03:58:26.010Z,7.88
2023-04-20T04:01:14.636Z,7.97
2023-04-20T04:03:46.220Z,8.60
2023-04-20T04:06:13.511Z,4.47
2023-04-20T04:08:40.849Z,5.07
2023-04-20T04:11:07.868Z,6.68
2023-04-20T04:13:34.964Z,5.55
2023-04-20T04:16:04.376Z,3.97
2023-04-20T04:18:32.690Z,4.50
2023-04-20T04:21:03.667Z,4.45
2023-04-20T04:23:30.881Z,4.97
2023-04-20T04:26:10.168Z,4.75
2023-04-20T04:28:40.509Z,6.00
2023-04-20T04:31:19.440Z,10.30
2023-04-20T04:33:46.598Z,10.48
2023-04-20T04:36:21.724Z,8.98
2023-04-20T04:38:49.004Z,6.50
2023-04-20T04:41:15.868Z,5.57
2023-04-20T04:43:43.697Z,6.30
2023-04-20T04:46:21.058Z,5.43
2023-04-20T04:48:47.838Z,7.40
2023-04-20T04:51:14.559Z,10.07
2023-04-20T04:53:45.083Z,4.50
2023-04-20T04:56:13.279Z,8.18
2023-04-20T04:58:40.004Z,7.72
2023-04-20T05:01:06.627Z,7.82
2023-04-20T05:03:33.567Z,5.30
2023-04-20T05:06:00.704Z,7.95
2023-04-20T05:08:27.442Z,4.93
2023-04-20T05:10:54.137Z,7.70
2023-04-20T05:13:20.947Z,6.43
2023-04-20T05:15:47.657Z,9.50
2023-04-20T05:18:14.451Z,6.55
2023-04-20T05:20:42.059Z,8.18
2023-04-20T05:23:09.092Z,8.77
2023-04-20T05:25:35.777Z,12.18
2023-04-20T05:28:02.415Z,6.88
2023-04-20T05:30:29.122Z,8.30
2023-04-20T05:32:55.902Z,6.78
2023-04-20T05:35:22.847Z,8.95
2023-04-20T05:37:49.569Z,6.25
2023-04-20T05:40:16.468Z,8.10
2023-04-20T05:42:43.292Z,14.20
2023-04-20T05:45:12.731Z,7.95
2023-04-20T05:47:39.555Z,8.70
2023-04-20T05:50:07.583Z,10.02
2023-04-20T05:52:34.334Z,11.45
2023-04-20T05:55:01.196Z,8.75
2023-04-20T05:57:27.949Z,11.43
2023-04-20T05:59:56.138Z,11.77
2023-04-20T06:02:22.997Z,9.13
2023-04-20T06:04:49.915Z,8.80
2023-04-20T06:07:16.821Z,9.15
2023-04-20T06:09:43.580Z,10.20
2023-04-20T06:12:10.333Z,11.05
2023-04-20T06:14:37.051Z,10.30
2023-04-20T06:17:03.729Z,12.05
2023-04-20T06:19:30.382Z,9.27
2023-04-20T06:22:00.217Z,10.98
2023-04-20T06:24:27.953Z,10.90
2023-04-20T06:26:54.974Z,11.50
2023-04-20T06:29:21.712Z,10.38
2023-04-20T06:31:48.436Z,11.65
2023-04-20T06:34:16.205Z,13.10
2023-04-20T06:36:43.783Z,12.52
2023-04-20T06:39:14.023Z,13.27
2023-04-20T06:41:40.753Z,10.88
2023-04-20T06:44:07.528Z,12.18
2023-04-20T06:46:34.508Z,12.93
2023-04-20T06:49:01.422Z,13.15
2023-04-20T06:51:29.093Z,10.85
2023-04-20T06:53:58.667Z,14.63
2023-04-20T06:56:25.289Z,11.73
2023-04-20T06:58:52.265Z,11.02
2023-04-20T07:01:19.019Z,7.82
2023-04-20T07:03:47.139Z,6.80
2023-04-20T07:06:14.101Z,5.97
2023-04-20T07:08:41.068Z,8.73
2023-04-20T07:11:10.159Z,4.38
2023-04-20T07:13:36.848Z,4.28
2023-04-20T07:16:03.660Z,7.25
2023-04-20T07:18:32.349Z,4.68
2023-04-20T07:21:00.706Z,6.60
2023-04-20T07:23:27.410Z,6.50
2023-04-20T07:25:54.365Z,5.07
2023-04-20T07:28:21.058Z,5.63
2023-04-20T07:30:47.843Z,4.80
2023-04-20T07:33:14.645Z,6.03
2023-04-20T07:35:41.416Z,8.25
2023-04-20T07:38:08.182Z,5.70
2023-04-20T07:40:34.879Z,6.20
2023-04-20T07:43:01.639Z,5.18
2023-04-20T07:45:28.328Z,13.25
2023-04-20T07:47:57.240Z,7.13
2023-04-20T07:50:24.188Z,6.15
2023-04-20T07:52:50.936Z,6.50
2023-04-20T07:55:17.862Z,7.13
2023-04-20T07:57:45.068Z,8.93
2023-04-20T08:00:13.412Z,6.45
2023-04-20T08:02:40.411Z,8.23
2023-04-20T08:05:10.061Z,9.55
2023-04-20T08:07:37.150Z,6.68
2023-04-20T08:10:05.729Z,5.97
2023-04-20T08:12:32.449Z,5.78
2023-04-20T08:15:01.877Z,7.53
2023-04-20T08:17:28.642Z,14.85
2023-04-20T08:19:55.417Z,6.60
2023-04-20T08:22:22.119Z,9.82
2023-04-20T08:24:48.789Z,6.43
2023-04-20T08:27:15.505Z,7.15
2023-04-20T08:29:42.187Z,9.57
2023-04-20T08:32:09.210Z,9.98
2023-04-20T08:34:36.317Z,7.50
2023-04-20T08:37:03.646Z,8.95
2023-04-20T08:39:30.464Z,8.35
2023-04-20T08:41:57.465Z,11.50
2023-04-20T08:44:24.908Z,8.43
2023-04-20T08:46:51.988Z,11.15
2023-04-20T08:49:20.142Z,8.48
2023-04-20T08:51:48.240Z,9.48
2023-04-20T08:54:15.657Z,8.75
2023-04-20T08:56:46.213Z,10.57
2023-04-20T08:59:14.461Z,9.32
2023-04-20T09:01:43.082Z,8.73
2023-04-20T09:04:22.238Z,8.88
2023-04-20T09:06:52.111Z,11.52
2023-04-20T09:09:21.050Z,13.93
2023-04-20T09:11:59.307Z,11.70
2023-04-20T09:14:26.024Z,14.45
2023-04-20T09:17:01.999Z,11.25
2023-04-20T09:19:30.601Z,12.77
2023-04-20T09:22:03.768Z,13.63
2023-04-20T09:24:36.527Z,12.00
2023-04-20T09:27:17.612Z,14.07
2023-04-20T09:29:57.760Z,13.60
2023-04-20T09:32:27.937Z,12.13
2023-04-20T09:34:55.412Z,11.65
2023-04-20T09:37:25.666Z,11.90
2023-04-20T09:39:59.698Z,14.45
2023-04-20T09:42:28.786Z,13.52
2023-04-20T09:44:57.320Z,14.80
2023-04-20T09:47:26.640Z,11.48
2023-04-20T09:49:54.701Z,13.13
2023-04-20T09:52:22.676Z,10.82
2023-04-20T09:54:51.334Z,7.78
2023-04-20T09:57:19.222Z,5.70
2023-04-20T09:59:47.288Z,6.93
2023-04-20T10:02:14.868Z,5.60
2023-04-20T10:05:11.154Z,6.65
2023-04-20T10:07:37.910Z,4.93
2023-04-20T10:10:14.221Z,5.75
2023-04-20T10:13:07.297Z,4.47
2023-04-20T10:15:39.650Z,4.82
2023-04-20T10:18:24.537Z,4.20
2023-04-20T10:21:03.801Z,4.10
2023-04-20T10:23:30.577Z,2.90
2023-04-20T10:26:00.584Z,4.10
2023-04-20T10:28:44.920Z,4.25
2023-04-20T10:31:13.766Z,3.03
2023-04-20T10:33:56.673Z,3.78
2023-04-20T10:36:34.374Z,3.10
2023-04-20T10:39:02.716Z,3.15
2023-04-20T10:41:29.389Z,3.10
2023-04-20T10:44:06.881Z,4.63
2023-04-20T10:46:33.711Z,5.22
2023-04-20T10:49:02.278Z,3.15
2023-04-20T10:51:29.947Z,1.98
2023-04-20T10:54:08.573Z,2.50
2023-04-20T10:56:42.309Z,2.60
2023-04-20T10:59:12.414Z,3.80
2023-04-20T11:01:41.111Z,3.67
2023-04-20T11:04:12.563Z,3.92
2023-04-20T11:06:41.954Z,2.33
2023-04-20T11:09:24.726Z,2.42
2023-04-20T11:12:16.060Z,3.08
2023-04-20T11:14:57.916Z,2.58
2023-04-20T11:17:35.497Z,2.50
2023-04-20T11:20:12.216Z,2.63
2023-04-20T11:22:40.788Z,1.63
2023-04-20T11:25:10.891Z,2.53
2023-04-20T11:27:39.189Z,1.90
2023-04-20T11:30:07.976Z,2.53
2023-04-20T11:32:36.544Z,1.73
2023-04-20T11:35:10.723Z,2.47
2023-04-20T11:37:54.397Z,1.60
2023-04-20T11:40:21.307Z,4.93
2023-04-20T11:42:47.983Z,2.08
2023-04-20T11:45:15.778Z,1.90
2023-04-20T11:47:42.508Z,3.03
2023-04-20T11:50:10.460Z,1.83
2023-04-20T11:52:37.409Z,2.70
2023-04-20T11:55:04.662Z,2.20
2023-04-20T11:57:31.436Z,2.95
2023-04-20T11:59:58.807Z,2.53
2023-04-20T12:02:25.711Z,2.20
2023-04-20T12:04:52.508Z,1.92
2023-04-20T12:07:19.226Z,1.77
2023-04-20T12:09:45.955Z,2.22
2023-04-20T12:12:12.715Z,2.35
2023-04-20T12:14:39.439Z,1.80
2023-04-20T12:17:06.214Z,4.00
2023-04-20T12:19:33.015Z,2.08
2023-04-20T12:21:59.756Z,2.85
2023-04-20T12:24:26.520Z,4.93
2023-04-20T12:26:53.227Z,1.67
2023-04-20T12:29:20.267Z,1.88
2023-04-20T12:31:47.206Z,2.97
2023-04-20T12:34:14.128Z,3.95
2023-04-20T12:36:40.965Z,2.65
2023-04-20T12:39:07.722Z,2.15
2023-04-20T12:41:34.556Z,2.03
2023-04-20T12:44:04.376Z,2.00
2023-04-20T12:46:32.933Z,2.33
2023-04-20T12:48:59.688Z,3.95
2023-04-20T12:51:27.183Z,3.08
2023-04-20T12:53:54.070Z,2.22
2023-04-20T12:56:21.580Z,1.88
2023-04-20T12:58:48.326Z,3.97
2023-04-20T13:01:15.043Z,2.15
2023-04-20T13:03:42.842Z,2.58
2023-04-20T13:06:14.171Z,2.28
2023-04-20T13:08:41.320Z,3.28
2023-04-20T13:11:08.957Z,2.45
2023-04-20T13:13:35.604Z,3.33
2023-04-20T13:16:02.527Z,2.95
2023-04-20T13:18:29.286Z,3.75
2023-04-20T13:20:56.068Z,3.05
2023-04-20T13:23:22.855Z,3.55
2023-04-20T13:25:49.754Z,4.50
2023-04-20T13:28:16.406Z,3.95
2023-04-20T13:30:43.867Z,3.70
2023-04-20T13:33:11.074Z,3.60
2023-04-20T13:35:37.834Z,4.13
2023-04-20T13:38:05.342Z,6.05
2023-04-20T13:40:32.232Z,3.10
2023-04-20T13:42:58.929Z,4.20
2023-04-20T13:45:25.824Z,4.80
2023-04-20T13:47:52.561Z,4.25
2023-04-20T13:50:19.348Z,4.32
2023-04-20T13:52:46.099Z,3.30
2023-04-20T13:55:12.851Z,6.07
2023-04-20T13:57:39.601Z,6.45
2023-04-20T14:00:07.959Z,3.97
2023-04-20T14:02:35.535Z,3.95
2023-04-20T14:05:04.063Z,4.93
2023-04-20T14:07:31.056Z,3.97
2023-04-20T14:09:59.911Z,4.30
2023-04-20T14:12:27.612Z,5.60
2023-04-20T14:14:58.561Z,3.38
2023-04-20T14:17:26.516Z,4.32
2023-04-20T14:19:53.296Z,3.22
2023-04-20T14:22:19.922Z,4.15
2023-04-20T14:24:47.595Z,5.30
2023-04-20T14:27:14.680Z,4.82
2023-04-20T14:29:41.399Z,4.57
2023-04-20T14:32:08.157Z,5.03
2023-04-20T14:34:34.847Z,3.30
2023-04-20T14:37:01.523Z,3.20
2023-04-20T14:39:28.178Z,4.45
2023-04-20T14:41:54.851Z,4.90
2023-04-20T14:44:21.540Z,4.85
2023-04-20T14:46:48.348Z,4.57
2023-04-20T14:49:15.105Z,4.35
2023-04-20T14:51:41.820Z,4.70
2023-04-20T14:54:08.522Z,3.88
2023-04-20T14:56:35.798Z,5.78
2023-04-20T14:59:02.564Z,6.40
2023-04-20T15:01:29.323Z,6.40
2023-04-20T15:03:56.210Z,5.28
2023-04-20T15:06:23.221Z,6.32
2023-04-20T15:08:50.373Z,4.50
2023-04-20T15:11:17.025Z,4.57
2023-04-20T15:13:43.883Z,4.53
2023-04-20T15:16:10.847Z,6.55
2023-04-20T15:18:37.568Z,7.65
2023-04-20T15:21:05.233Z,7.35
2023-04-20T15:23:31.947Z,9.23
2023-04-20T15:25:58.756Z,7.35
2023-04-20T15:28:25.631Z,5.95
2023-04-20T15:30:52.374Z,6.00
2023-04-20T15:33:19.239Z,6.35
2023-04-20T15:35:46.194Z,5.22
2023-04-20T15:38:12.911Z,6.13
2023-04-20T15:40:39.684Z,4.60
2023-04-20T15:43:06.717Z,6.05
2023-04-20T15:45:33.525Z,5.40
2023-04-20T15:48:00.956Z,5.35
2023-04-20T15:50:27.930Z,5.78
2023-04-20T15:52:54.996Z,6.07
2023-04-20T15:55:22.181Z,4.43
2023-04-20T15:57:48.878Z,5.40
2023-04-20T16:00:16.216Z,4.78
2023-04-20T16:02:43.044Z,7.78
2023-04-20T16:05:09.950Z,7.22
2023-04-20T16:07:36.620Z,5.85
2023-04-20T16:10:06.521Z,6.95
2023-04-20T16:12:33.364Z,7.13
2023-04-20T16:15:04.313Z,6.53
2023-04-20T16:17:31.008Z,6.80
2023-04-20T16:19:57.827Z,7.55
2023-04-20T16:22:24.721Z,8.05
2023-04-20T16:24:51.426Z,7.43
2023-04-20T16:27:18.887Z,7.43
2023-04-20T16:29:45.640Z,7.55
2023-04-20T16:32:12.829Z,7.15
2023-04-20T16:34:39.591Z,8.10
2023-04-20T16:37:06.458Z,8.35
2023-04-20T16:39:33.117Z,5.95
2023-04-20T16:41:59.811Z,7.30
2023-04-20T16:44:26.634Z,6.55
2023-04-20T16:46:53.452Z,6.30
2023-04-20T16:49:20.337Z,7.03
2023-04-20T16:51:47.711Z,7.85
2023-04-20T16:54:14.410Z,5.55
2023-04-20T16:56:41.227Z,9.48
2023-04-20T16:59:08.048Z,5.88
2023-04-20T17:01:35.026Z,9.57
2023-04-20T17:04:02.071Z,6.93
2023-04-20T17:06:30.434Z,5.88
2023-04-20T17:09:01.394Z,6.15
2023-04-20T17:11:28.139Z,7.63
2023-04-20T17:13:54.810Z,9.20
2023-04-20T17:16:21.496Z,6.40
2023-04-20T17:18:48.189Z,6.53
2023-04-20T17:21:14.949Z,6.25
2023-04-20T17:23:41.624Z,8.02
2023-04-20T17:26:08.765Z,5.95
2023-04-20T17:28:35.635Z,6.25
2023-04-20T17:31:02.678Z,5.88
2023-04-20T17:33:29.375Z,6.55
2023-04-20T17:35:57.053Z,6.43
2023-04-20T17:38:24.340Z,6.15
2023-04-20T17:40:51.259Z,6.47
2023-04-20T17:43:17.948Z,5.30
2023-04-20T17:45:44.736Z,5.32
2023-04-20T17:48:11.438Z,5.47
2023-04-20T17:50:38.098Z,5.07
2023-04-20T17:53:06.916Z,8.02
2023-04-20T17:55:35.273Z,5.57
2023-04-20T17:58:02.026Z,5.00
2023-04-20T18:00:28.828Z,9.82
2023-04-20T18:02:55.932Z,5.65
2023-04-20T18:05:22.848Z,4.55
2023-04-20T18:07:49.550Z,5.25
2023-04-20T18:10:16.348Z,4.55
2023-04-20T18:12:43.507Z,6.85
2023-04-20T18:15:11.224Z,4.85
2023-04-20T18:17:38.239Z,8.27
2023-04-20T18:20:06.276Z,5.35
2023-04-20T18:22:33.116Z,5.45
2023-04-20T18:24:59.843Z,6.00
2023-04-20T18:27:26.473Z,6.05
2023-04-20T18:29:53.642Z,4.78
2023-04-20T18:32:21.176Z,6.40
2023-04-20T18:34:47.902Z,6.82
2023-04-20T18:37:15.011Z,5.70
2023-04-20T18:39:41.837Z,5.03
2023-04-20T18:42:08.714Z,6.20
2023-04-20T18:44:35.529Z,6.95
2023-04-20T18:47:02.467Z,7.55
2023-04-20T18:49:30.569Z,7.82
2023-04-20T18:51:57.523Z,7.68
2023-04-20T18:54:24.214Z,8.48
2023-04-20T18:56:51.269Z,7.00
2023-04-20T18:59:18.497Z,8.50
2023-04-20T19:01:45.318Z,7.93
2023-04-20T19:04:12.491Z,6.65
2023-04-20T19:06:39.245Z,8.48
2023-04-20T19:09:08.053Z,7.25
2023-04-20T19:11:35.321Z,8.75
2023-04-20T19:14:02.062Z,10.00
2023-04-20T19:16:33.800Z,8.40
2023-04-20T19:19:01.364Z,7.82
2023-04-20T19:21:28.095Z,6.65
2023-04-20T19:23:56.223Z,7.78
2023-04-20T19:26:24.060Z,8.50
2023-04-20T19:28:51.050Z,7.50
2023-04-20T19:31:17.836Z,8.07
2023-04-20T19:33:44.630Z,7.22
2023-04-20T19:36:12.389Z,8.65
2023-04-20T19:38:39.176Z,7.70
2023-04-20T19:41:06.299Z,9.55
2023-04-20T19:43:33.197Z,8.18
2023-04-20T19:46:00.428Z,6.72
2023-04-20T19:48:27.285Z,7.95
2023-04-20T19:50:56.582Z,7.32
2023-04-20T19:53:25.126Z,12.60
2023-04-20T19:55:51.977Z,9.60
2023-04-20T19:58:19.321Z,7.82
2023-04-20T20:00:46.547Z,6.97
2023-04-20T20:03:15.718Z,11.73
2023-04-20T20:05:44.512Z,8.70
2023-04-20T20:08:11.641Z,11.07
2023-04-20T20:10:38.381Z,9.43
2023-04-20T20:13:05.748Z,10.05
2023-04-20T20:15:32.591Z,10.35
2023-04-20T20:17:59.571Z,10.10
2023-04-20T20:20:32.356Z,12.05
2023-04-20T20:23:00.355Z,10.52
2023-04-20T20:25:27.098Z,11.65
2023-04-20T20:27:54.017Z,12.55
2023-04-20T20:30:21.185Z,14.35
2023-04-20T20:32:47.987Z,12.70
2023-04-20T20:35:14.910Z,13.43
2023-04-20T20:37:42.377Z,14.40
2023-04-20T20:40:15.140Z,16.80
2023-04-20T20:42:42.948Z,14.60
2023-04-20T20:45:12.377Z,16.83
2023-04-20T20:47:41.093Z,17.75
2023-04-20T20:50:09.986Z,16.50
2023-04-20T20:52:36.720Z,19.63
2023-04-20T20:55:04.449Z,21.40
2023-04-20T20:57:31.270Z,18.17
2023-04-20T20:59:58.049Z,20.77
2023-04-20T21:02:24.889Z,21.33
2023-04-20T21:04:51.791Z,19.80
2023-04-20T21:07:18.467Z,21.60
2023-04-20T21:09:45.212Z,22.50
2023-04-20T21:12:11.911Z,23.17
2023-04-20T21:14:38.588Z,23.95
2023-04-20T21:17:05.527Z,26.83
2023-04-20T21:19:32.297Z,26.67
2023-04-20T21:21:59.029Z,27.33
2023-04-20T21:24:25.795Z,27.65
2023-04-20T21:26:52.701Z,29.23
2023-04-20T21:29:19.913Z,27.85
2023-04-20T21:31:46.888Z,30.80
2023-04-20T21:34:13.648Z,32.10
2023-04-20T21:36:40.704Z,29.98
2023-04-20T21:39:07.455Z,28.23
2023-04-20T21:41:34.192Z,24.40
2023-04-20T21:44:02.493Z,25.00
2023-04-20T21:46:29.507Z,24.42
2023-04-20T21:48:56.467Z,23.52
2023-04-20T21:51:23.148Z,24.30
2023-04-20T21:53:49.869Z,10.73
2023-04-20T21:56:16.650Z,0.20
2023-04-20T21:58:43.332Z,1.33
2023-04-20T22:01:10.199Z,0.32
2023-04-20T22:03:38.060Z,0.00
2023-04-20T22:06:05.657Z,0.00
2023-04-20T22:08:32.435Z,0.60
2023-04-20T22:10:59.119Z,0.00
2023-04-20T22:13:25.923Z,0.08
2023-04-20T22:15:52.794Z,0.47
2023-04-20T22:18:19.811Z,0.00
2023-04-20T22:20:46.624Z,0.10
2023-04-20T22:23:13.296Z,0.00
2023-04-20T22:25:40.793Z,0.00
2023-04-20T22:28:07.504Z,0.10
2023-04-20T22:30:34.666Z,0.43
2023-04-20T22:33:02.091Z,0.00
2023-04-20T22:35:29.243Z,0.00
2023-04-20T22:37:56.325Z,1.55
2023-04-20T22:40:24.100Z,0.85
2023-04-20T22:42:51.023Z,0.00
2023-04-20T22:45:19.941Z,0.00
2023-04-20T22:47:47.283Z,0.00
2023-04-20T22:50:14.067Z,0.20
2023-04-20T22:52:41.466Z,0.10
2023-04-20T22:55:10.172Z,0.00
2023-04-20T22:57:37.318Z,0.00
2023-04-20T23:00:10.475Z,0.00
2023-04-20T23:02:37.673Z,0.10
2023-04-20T23:05:06.347Z,0.00
2023-04-20T23:07:33.432Z,0.00
2023-04-20T23:10:00.453Z,0.00
2023-04-20T23:12:29.459Z,0.30
2023-04-20T23:14:56.671Z,0.00
2023-04-20T23:17:23.568Z,0.43
2023-04-20T23:19:50.971Z,0.20
2023-04-20T23:22:18.200Z,0.00
2023-04-20T23:24:44.893Z,0.43
2023-04-20T23:27:11.568Z,0.00
2023-04-20T23:29:38.210Z,0.00
2023-04-20T23:32:05.306Z,0.00
2023-04-20T23:34:31.981Z,0.10
2023-04-20T23:36:58.782Z,0.00
2023-04-20T23:39:25.760Z,0.08
2023-04-20T23:41:52.504Z,0.00
2023-04-20T23:44:19.186Z,0.00
2023-04-20T23:46:46.316Z,0.00
2023-04-20T23:49:13.043Z,0.40
2023-04-20T23:51:39.858Z,0.00
2023-04-20T23:54:06.508Z,0.00
2023-04-20T23:56:33.188Z,0.85
2023-04-20T23:58:59.875Z,0.90
